Time,TemperatureF,DewpointF,PressureIn,WindDirection,WindDirectionDegrees,WindSpeedMPH,WindSpeedGustMPH,Humidity,HourlyPrecipIn,Conditions,Clouds,dailyrainin,SoftwareType,DateUTC
2013-02-03 00:02:00,46.7,41.8,30.11,East,97,0.0,0.0,83,0.00,,---,0.00,VWS V14.01,2013-02-03 08:02:00,
2013-02-03 00:07:00,46.5,41.6,30.11,East,97,0.0,0.0,83,0.00,,---,0.00,VWS V14.01,2013-02-03 08:07:00,
2013-02-03 00:12:00,46.4,41.5,30.10,East,97,0.0,0.0,83,0.00,,---,0.00,VWS V14.01,2013-02-03 08:12:00,
2013-02-03 00:17:00,46.3,41.4,30.10,East,97,0.0,0.0,83,0.00,,---,0.00,VWS V14.01,2013-02-03 08:17:00,
2013-02-03 00:22:00,46.3,41.4,30.10,East,98,0.0,0.0,83,0.00,,---,0.00,VWS V14.01,2013-02-03 08:22:00,
2013-02-03 00:27:00,46.1,41.2,30.10,East,97,0.0,0.0,83,0.00,,---,0.00,VWS V14.01,2013-02-03 08:27:00,
2013-02-03 00:32:00,46.0,41.1,30.10,East,97,0.0,0.0,83,0.00,,---,0.00,VWS V14.01,2013-02-03 08:32:00,
2013-02-03 00:37:00,46.0,41.1,30.10,East,97,0.0,0.0,83,0.00,,---,0.00,VWS V14.01,2013-02-03 08:37:00,
2013-02-03 00:42:00,45.8,40.9,30.10,East,97,0.0,0.0,83,0.00,,---,0.00,VWS V14.01,2013-02-03 08:42:00,
2013-02-03 00:47:00,45.6,40.7,30.10,East,97,0.0,0.0,83,0.00,,---,0.00,VWS V14.01,2013-02-03 08:47:00,
2013-02-03 00:52:00,45.6,40.7,30.10,East,101,0.0,0.0,83,0.00,,---,0.00,VWS V14.01,2013-02-03 08:52:00,
2013-02-03 00:57:00,45.5,40.7,30.10,East,101,0.0,0.0,83,0.00,,---,0.00,VWS V14.01,2013-02-03 08:57:00,
2013-02-03 01:02:00,45.4,40.5,30.10,East,101,0.0,0.0,83,0.00,,---,0.00,VWS V14.01,2013-02-03 09:02:00,
2013-02-03 01:07:00,45.3,40.5,30.10,East,101,0.0,0.0,83,0.00,,---,0.00,VWS V14.01,2013-02-03 09:07:00,
2013-02-03 01:12:00,45.2,40.3,30.10,East,101,0.0,0.0,83,0.00,,---,0.00,VWS V14.01,2013-02-03 09:12:00,
2013-02-03 01:18:00,45.1,40.2,30.10,East,101,0.0,0.0,83,0.00,,---,0.00,VWS V14.01,2013-02-03 09:18:00,
2013-02-03 01:23:00,45.0,40.2,30.10,East,101,0.0,0.0,83,0.00,,---,0.00,VWS V14.01,2013-02-03 09:23:00,
2013-02-03 01:28:00,44.9,40.1,30.10,East,101,0.0,0.0,83,0.00,,---,0.00,VWS V14.01,2013-02-03 09:28:00,
2013-02-03 01:33:00,44.9,40.1,30.10,East,101,0.0,0.0,83,0.00,,---,0.00,VWS V14.01,2013-02-03 09:33:00,
2013-02-03 01:38:00,44.8,40.0,30.10,East,101,0.0,0.0,83,0.00,,---,0.00,VWS V14.01,2013-02-03 09:38:00,
2013-02-03 01:43:00,44.8,40.0,30.10,East,101,0.0,0.0,83,0.00,,---,0.00,VWS V14.01,2013-02-03 09:43:00,
2013-02-03 01:48:00,44.7,39.9,30.10,East,101,0.0,0.0,83,0.00,,---,0.00,VWS V14.01,2013-02-03 09:48:00,
2013-02-03 01:53:00,44.6,40.1,30.10,East,101,0.0,0.0,84,0.00,,---,0.00,VWS V14.01,2013-02-03 09:53:00,
2013-02-03 01:58:00,44.5,39.7,30.10,East,101,0.0,0.0,83,0.00,,---,0.00,VWS V14.01,2013-02-03 09:58:00,
2013-02-03 02:03:00,44.5,40.0,30.10,East,101,0.0,0.0,84,0.00,,---,0.00,VWS V14.01,2013-02-03 10:03:00,
2013-02-03 02:08:00,44.4,39.9,30.10,East,101,0.0,0.0,84,0.00,,---,0.00,VWS V14.01,2013-02-03 10:08:00,
2013-02-03 02:13:00,44.3,39.8,30.10,East,101,0.0,0.0,84,0.00,,---,0.00,VWS V14.01,2013-02-03 10:13:00,
2013-02-03 02:18:00,44.2,39.4,30.10,East,101,0.0,0.0,83,0.00,,---,0.00,VWS V14.01,2013-02-03 10:18:00,
2013-02-03 02:23:00,44.1,39.3,30.11,East,101,0.0,0.0,83,0.00,,---,0.00,VWS V14.01,2013-02-03 10:23:00,
2013-02-03 02:28:00,44.0,39.2,30.11,East,101,0.0,0.0,83,0.00,,---,0.00,VWS V14.01,2013-02-03 10:28:00,
2013-02-03 02:33:00,43.8,39.3,30.11,East,101,0.0,0.0,84,0.00,,---,0.00,VWS V14.01,2013-02-03 10:33:00,
2013-02-03 02:38:00,43.6,39.1,30.11,East,101,0.0,0.0,84,0.00,,---,0.00,VWS V14.01,2013-02-03 10:38:00,
2013-02-03 02:43:00,43.5,39.0,30.11,East,101,0.0,0.0,84,0.00,,---,0.00,VWS V14.01,2013-02-03 10:43:00,
2013-02-03 02:48:00,43.4,38.9,30.11,East,101,0.0,0.0,84,0.00,,---,0.00,VWS V14.01,2013-02-03 10:48:00,
2013-02-03 02:53:00,43.3,38.8,30.11,East,101,0.0,0.0,84,0.00,,---,0.00,VWS V14.01,2013-02-03 10:53:00,
2013-02-03 02:59:00,43.2,38.7,30.11,East,101,0.0,0.0,84,0.00,,---,0.00,VWS V14.01,2013-02-03 10:59:00,
2013-02-03 03:04:00,43.1,38.6,30.10,ESE,102,0.0,0.0,84,0.00,,---,0.00,VWS V14.01,2013-02-03 11:04:00,
2013-02-03 03:09:00,43.1,38.6,30.10,East,101,0.0,0.0,84,0.00,,---,0.00,VWS V14.01,2013-02-03 11:09:00,
2013-02-03 03:14:00,42.9,38.4,30.10,East,101,0.0,0.0,84,0.00,,---,0.00,VWS V14.01,2013-02-03 11:14:00,
2013-02-03 03:19:00,42.7,38.2,30.10,East,101,0.0,0.0,84,0.00,,---,0.00,VWS V14.01,2013-02-03 11:19:00,
2013-02-03 03:24:00,42.6,38.4,30.10,East,101,0.0,0.0,85,0.00,,---,0.00,VWS V14.01,2013-02-03 11:24:00,
2013-02-03 03:29:00,42.4,37.9,30.10,East,101,0.0,0.0,84,0.00,,---,0.00,VWS V14.01,2013-02-03 11:29:00,
2013-02-03 03:34:00,42.2,38.0,30.10,East,101,0.0,0.0,85,0.00,,---,0.00,VWS V14.01,2013-02-03 11:34:00,
2013-02-03 03:39:00,42.1,37.9,30.10,East,101,0.0,0.0,85,0.00,,---,0.00,VWS V14.01,2013-02-03 11:39:00,
2013-02-03 03:44:00,41.9,37.7,30.10,East,101,0.0,0.0,85,0.00,,---,0.00,VWS V14.01,2013-02-03 11:44:00,
2013-02-03 03:49:00,41.9,37.7,30.10,ESE,102,0.0,0.0,85,0.00,,---,0.00,VWS V14.01,2013-02-03 11:49:00,
2013-02-03 03:54:00,41.9,37.7,30.09,East,101,0.0,0.0,85,0.00,,---,0.00,VWS V14.01,2013-02-03 11:54:00,
2013-02-03 03:59:00,41.9,37.7,30.10,East,101,0.0,0.0,85,0.00,,---,0.00,VWS V14.01,2013-02-03 11:59:00,
2013-02-03 04:04:00,42.0,37.8,30.09,East,101,0.0,0.0,85,0.00,,---,0.00,VWS V14.01,2013-02-03 12:04:00,
2013-02-03 04:09:00,41.9,37.7,30.09,East,101,0.0,0.0,85,0.00,,---,0.00,VWS V14.01,2013-02-03 12:09:00,
2013-02-03 04:14:00,41.8,37.6,30.09,East,101,0.0,0.0,85,0.00,,---,0.00,VWS V14.01,2013-02-03 12:14:00,
2013-02-03 04:20:00,41.6,37.4,30.09,East,101,0.0,0.0,85,0.00,,---,0.00,VWS V14.01,2013-02-03 12:20:00,
2013-02-03 04:25:00,41.5,37.3,30.09,East,101,0.0,0.0,85,0.00,,---,0.00,VWS V14.01,2013-02-03 12:25:00,
2013-02-03 04:30:00,41.4,37.2,30.09,East,101,0.0,0.0,85,0.00,,---,0.00,VWS V14.01,2013-02-03 12:30:00,
2013-02-03 04:35:00,41.3,37.1,30.09,East,101,0.0,0.0,85,0.00,,---,0.00,VWS V14.01,2013-02-03 12:35:00,
2013-02-03 04:40:00,41.3,37.4,30.09,East,101,0.0,0.0,86,0.00,,---,0.00,VWS V14.01,2013-02-03 12:40:00,
2013-02-03 04:45:00,41.3,37.1,30.09,East,101,0.0,0.0,85,0.00,,---,0.00,VWS V14.01,2013-02-03 12:45:00,
2013-02-03 04:50:00,41.3,37.4,30.10,East,101,0.0,0.0,86,0.00,,---,0.00,VWS V14.01,2013-02-03 12:50:00,
2013-02-03 04:55:00,41.1,36.9,30.09,East,101,0.0,0.0,85,0.00,,---,0.00,VWS V14.01,2013-02-03 12:55:00,
2013-02-03 05:00:00,41.0,36.5,30.09,East,101,0.0,0.0,84,0.00,,---,0.00,VWS V14.01,2013-02-03 13:00:00,
2013-02-03 05:05:00,40.9,36.5,30.09,East,101,0.0,0.0,84,0.00,,---,0.00,VWS V14.01,2013-02-03 13:05:00,
2013-02-03 05:10:00,40.8,36.3,30.10,East,101,0.0,0.0,84,0.00,,---,0.00,VWS V14.01,2013-02-03 13:10:00,
2013-02-03 05:15:00,40.7,36.5,30.10,East,101,0.0,0.0,85,0.00,,---,0.00,VWS V14.01,2013-02-03 13:15:00,
2013-02-03 05:20:00,40.7,36.5,30.10,East,101,0.0,0.0,85,0.00,,---,0.00,VWS V14.01,2013-02-03 13:20:00,
2013-02-03 05:25:00,40.7,36.5,30.10,East,101,0.0,0.0,85,0.00,,---,0.00,VWS V14.01,2013-02-03 13:25:00,
2013-02-03 05:30:00,40.7,36.5,30.10,East,101,0.0,0.0,85,0.00,,---,0.00,VWS V14.01,2013-02-03 13:30:00,
2013-02-03 05:35:00,40.7,36.5,30.10,East,101,0.0,0.0,85,0.00,,---,0.00,VWS V14.01,2013-02-03 13:35:00,
2013-02-03 05:41:00,40.6,36.5,30.10,ESE,102,0.0,0.0,85,0.00,,---,0.00,VWS V14.01,2013-02-03 13:41:00,
2013-02-03 05:46:00,40.6,36.5,30.10,East,101,0.0,0.0,85,0.00,,---,0.00,VWS V14.01,2013-02-03 13:46:00,
2013-02-03 05:51:00,40.6,36.5,30.10,East,101,0.0,0.0,85,0.00,,---,0.00,VWS V14.01,2013-02-03 13:51:00,
2013-02-03 05:56:00,40.5,36.3,30.10,East,101,0.0,0.0,85,0.00,,---,0.00,VWS V14.01,2013-02-03 13:56:00,
2013-02-03 06:01:00,40.4,36.3,30.11,East,101,0.0,0.0,85,0.00,,---,0.00,VWS V14.01,2013-02-03 14:01:00,
2013-02-03 06:06:00,40.3,36.2,30.11,East,101,0.0,0.0,85,0.00,,---,0.00,VWS V14.01,2013-02-03 14:06:00,
2013-02-03 06:11:00,40.2,36.1,30.11,East,101,0.0,0.0,85,0.00,,---,0.00,VWS V14.01,2013-02-03 14:11:00,
2013-02-03 06:16:00,40.2,36.1,30.11,East,101,0.0,0.0,85,0.00,,---,0.00,VWS V14.01,2013-02-03 14:16:00,
2013-02-03 06:21:00,40.1,36.0,30.11,East,101,0.0,0.0,85,0.00,,---,0.00,VWS V14.01,2013-02-03 14:21:00,
2013-02-03 06:26:00,40.0,35.9,30.11,East,101,0.0,0.0,85,0.00,,---,0.00,VWS V14.01,2013-02-03 14:26:00,
2013-02-03 06:31:00,40.0,35.9,30.11,East,101,0.0,0.0,85,0.00,,---,0.00,VWS V14.01,2013-02-03 14:31:00,
2013-02-03 06:36:00,40.0,35.9,30.11,East,101,0.0,0.0,85,0.00,,---,0.00,VWS V14.01,2013-02-03 14:36:00,
2013-02-03 06:41:00,40.0,35.6,30.11,East,101,0.0,0.0,84,0.00,,---,0.00,VWS V14.01,2013-02-03 14:41:00,
2013-02-03 06:46:00,40.1,35.7,30.11,East,101,0.0,0.0,84,0.00,,---,0.00,VWS V14.01,2013-02-03 14:46:00,
2013-02-03 06:51:00,40.1,35.7,30.11,East,101,0.0,0.0,84,0.00,,---,0.00,VWS V14.01,2013-02-03 14:51:00,
2013-02-03 06:56:00,40.1,35.4,30.11,East,101,0.0,0.0,83,0.00,,---,0.00,VWS V14.01,2013-02-03 14:56:00,
2013-02-03 07:02:00,40.1,35.4,30.11,East,101,0.0,0.0,83,0.00,,---,0.00,VWS V14.01,2013-02-03 15:02:00,
2013-02-03 07:07:00,40.1,35.4,30.11,East,101,0.0,0.0,83,0.00,,---,0.00,VWS V14.01,2013-02-03 15:07:00,
2013-02-03 07:12:00,40.0,35.3,30.11,East,101,0.0,0.0,83,0.00,,---,0.00,VWS V14.01,2013-02-03 15:12:00,
2013-02-03 07:17:00,40.1,35.4,30.11,East,101,0.0,0.0,83,0.00,,---,0.00,VWS V14.01,2013-02-03 15:17:00,
2013-02-03 07:22:00,40.0,35.3,30.12,East,101,0.0,0.0,83,0.00,,---,0.00,VWS V14.01,2013-02-03 15:22:00,
2013-02-03 07:27:00,40.0,35.0,30.11,East,101,0.0,0.0,82,0.00,,---,0.00,VWS V14.01,2013-02-03 15:27:00,
2013-02-03 07:32:00,40.0,35.3,30.12,East,101,0.0,0.0,83,0.00,,---,0.00,VWS V14.01,2013-02-03 15:32:00,
2013-02-03 07:37:00,39.9,35.2,30.12,East,101,0.0,0.0,83,0.00,,---,0.00,VWS V14.01,2013-02-03 15:37:00,
2013-02-03 07:42:00,39.8,35.1,30.12,East,101,0.0,0.0,83,0.00,,---,0.00,VWS V14.01,2013-02-03 15:42:00,
2013-02-03 07:47:00,39.7,35.0,30.12,ESE,102,0.0,0.0,83,0.00,,---,0.00,VWS V14.01,2013-02-03 15:47:00,
2013-02-03 07:52:00,39.6,34.9,30.12,East,101,0.0,0.0,83,0.00,,---,0.00,VWS V14.01,2013-02-03 15:52:00,
2013-02-03 07:57:00,39.6,35.2,30.12,East,101,0.0,0.0,84,0.00,,---,0.00,VWS V14.01,2013-02-03 15:57:00,
2013-02-03 08:02:00,39.6,35.2,30.11,ESE,103,0.0,0.0,84,0.00,,---,0.00,VWS V14.01,2013-02-03 16:02:00,
2013-02-03 08:07:00,39.6,35.2,30.12,East,101,0.0,0.0,84,0.00,,---,0.00,VWS V14.01,2013-02-03 16:07:00,
2013-02-03 08:12:00,39.7,35.0,30.12,East,101,0.0,0.0,83,0.00,,---,0.00,VWS V14.01,2013-02-03 16:12:00,
2013-02-03 08:17:00,39.7,35.3,30.11,East,101,1.0,0.0,84,0.00,,---,0.00,VWS V14.01,2013-02-03 16:17:00,
2013-02-03 08:23:00,39.9,35.2,30.11,East,101,0.0,0.0,83,0.00,,---,0.00,VWS V14.01,2013-02-03 16:23:00,
2013-02-03 08:28:00,40.2,35.2,30.11,East,101,0.0,0.0,82,0.00,,---,0.00,VWS V14.01,2013-02-03 16:28:00,
2013-02-03 08:33:00,40.4,35.3,30.11,East,101,1.0,0.0,82,0.00,,---,0.00,VWS V14.01,2013-02-03 16:33:00,
2013-02-03 08:38:00,40.6,35.5,30.11,East,101,0.0,0.0,82,0.00,,---,0.00,VWS V14.01,2013-02-03 16:38:00,
2013-02-03 08:43:00,40.8,35.4,30.11,East,101,0.0,0.0,81,0.00,,---,0.00,VWS V14.01,2013-02-03 16:43:00,
2013-02-03 08:48:00,41.0,35.6,30.11,East,101,0.0,0.0,81,0.00,,---,0.00,VWS V14.01,2013-02-03 16:48:00,
2013-02-03 08:53:00,41.3,35.9,30.11,East,101,0.0,0.0,81,0.00,,---,0.00,VWS V14.01,2013-02-03 16:53:00,
2013-02-03 08:58:00,41.6,36.2,30.12,East,101,0.0,0.0,81,0.00,,---,0.00,VWS V14.01,2013-02-03 16:58:00,
2013-02-03 09:03:00,42.2,36.8,30.12,East,101,0.0,0.0,81,0.00,,---,0.00,VWS V14.01,2013-02-03 17:03:00,
2013-02-03 09:08:00,43.1,37.0,30.12,East,101,0.0,0.0,79,0.00,,---,0.00,VWS V14.01,2013-02-03 17:08:00,
2013-02-03 09:13:00,44.0,37.3,30.12,East,101,0.0,0.0,77,0.00,,---,0.00,VWS V14.01,2013-02-03 17:13:00,
2013-02-03 09:18:00,45.1,38.0,30.12,East,101,0.0,0.0,76,0.00,,---,0.00,VWS V14.01,2013-02-03 17:18:00,
2013-02-03 09:23:00,46.3,38.8,30.12,East,101,0.0,0.0,75,0.00,,---,0.00,VWS V14.01,2013-02-03 17:23:00,
2013-02-03 09:28:00,47.2,39.0,30.12,East,101,0.0,0.0,73,0.00,,---,0.00,VWS V14.01,2013-02-03 17:28:00,
2013-02-03 09:33:00,48.0,39.1,30.12,East,101,0.0,0.0,71,0.00,,---,0.00,VWS V14.01,2013-02-03 17:33:00,
2013-02-03 09:38:00,48.9,39.6,30.12,East,101,0.0,0.0,70,0.00,,---,0.00,VWS V14.01,2013-02-03 17:38:00,
2013-02-03 09:43:00,49.7,40.3,30.12,East,101,0.0,0.0,70,0.00,,---,0.00,VWS V14.01,2013-02-03 17:43:00,
2013-02-03 09:48:00,50.2,39.7,30.12,East,101,0.0,0.0,67,0.00,,---,0.00,VWS V14.01,2013-02-03 17:48:00,
2013-02-03 09:53:00,50.6,39.7,30.12,East,101,0.0,0.0,66,0.00,,---,0.00,VWS V14.01,2013-02-03 17:53:00,
2013-02-03 09:58:00,51.2,39.8,30.13,East,101,0.0,0.0,65,0.00,,---,0.00,VWS V14.01,2013-02-03 17:58:00,
2013-02-03 10:03:00,52.0,41.0,30.13,East,101,0.0,0.0,66,0.00,,---,0.00,VWS V14.01,2013-02-03 18:03:00,
2013-02-03 10:09:00,52.6,40.4,30.13,East,101,0.0,0.0,63,0.00,,---,0.00,VWS V14.01,2013-02-03 18:09:00,
2013-02-03 10:14:00,53.1,39.6,30.13,East,101,0.0,0.0,60,0.00,,---,0.00,VWS V14.01,2013-02-03 18:14:00,
2013-02-03 10:19:00,53.5,40.4,30.13,East,101,0.0,0.0,61,0.00,,---,0.00,VWS V14.01,2013-02-03 18:19:00,
2013-02-03 10:24:00,53.8,41.1,30.13,ESE,102,0.0,0.0,62,0.00,,---,0.00,VWS V14.01,2013-02-03 18:24:00,
2013-02-03 10:29:00,54.0,41.3,30.13,East,101,0.0,0.0,62,0.00,,---,0.00,VWS V14.01,2013-02-03 18:29:00,
2013-02-03 10:34:00,54.4,42.1,30.13,East,101,0.0,0.0,63,0.00,,---,0.00,VWS V14.01,2013-02-03 18:34:00,
2013-02-03 10:39:00,54.6,42.3,30.13,East,101,2.0,0.0,63,0.00,,---,0.00,VWS V14.01,2013-02-03 18:39:00,
2013-02-03 10:44:00,54.6,42.7,30.13,NE,43,1.0,0.0,64,0.00,,---,0.00,VWS V14.01,2013-02-03 18:44:00,
2013-02-03 10:49:00,54.8,42.9,30.13,NNE,24,1.0,0.0,64,0.00,,---,0.00,VWS V14.01,2013-02-03 18:49:00,
2013-02-03 10:54:00,54.9,43.0,30.13,North,9,1.0,0.0,64,0.00,,---,0.00,VWS V14.01,2013-02-03 18:54:00,
2013-02-03 10:59:00,55.1,42.8,30.13,NW,309,1.0,0.0,63,0.00,,---,0.00,VWS V14.01,2013-02-03 18:59:00,
2013-02-03 11:04:00,55.1,42.8,30.13,ENE,59,0.0,0.0,63,0.00,,---,0.00,VWS V14.01,2013-02-03 19:04:00,
2013-02-03 11:09:00,55.3,42.5,30.13,WNW,290,0.0,0.0,62,0.00,,---,0.00,VWS V14.01,2013-02-03 19:09:00,
2013-02-03 11:14:00,55.3,42.5,30.12,NE,36,0.0,0.0,62,0.00,,---,0.00,VWS V14.01,2013-02-03 19:14:00,
2013-02-03 11:19:00,55.6,43.2,30.12,NNE,14,0.0,0.0,63,0.00,,---,0.00,VWS V14.01,2013-02-03 19:19:00,
2013-02-03 11:24:00,56.0,43.2,30.12,West,281,3.0,0.0,62,0.00,,---,0.00,VWS V14.01,2013-02-03 19:24:00,
2013-02-03 11:29:00,56.6,43.8,30.12,NW,325,0.0,0.0,62,0.00,,---,0.00,VWS V14.01,2013-02-03 19:29:00,
2013-02-03 11:34:00,57.0,43.7,30.11,NNW,346,4.0,0.0,61,0.00,,---,0.00,VWS V14.01,2013-02-03 19:34:00,
2013-02-03 11:40:00,57.2,43.5,30.11,NW,317,0.0,0.0,60,0.00,,---,0.00,VWS V14.01,2013-02-03 19:40:00,
2013-02-03 11:45:00,57.4,44.1,30.11,NW,317,1.0,0.0,61,0.00,,---,0.00,VWS V14.01,2013-02-03 19:45:00,
2013-02-03 11:50:00,57.4,43.6,30.10,NNW,342,2.0,0.0,60,0.00,,---,0.00,VWS V14.01,2013-02-03 19:50:00,
2013-02-03 11:55:00,57.6,43.4,30.09,SW,227,0.0,0.0,59,0.00,,---,0.00,VWS V14.01,2013-02-03 19:55:00,
2013-02-03 12:00:00,57.9,44.1,30.09,NE,52,2.0,0.0,60,0.00,,---,0.00,VWS V14.01,2013-02-03 20:00:00,
2013-02-03 12:05:00,58.4,44.6,30.09,NNE,22,3.0,0.0,60,0.00,,---,0.00,VWS V14.01,2013-02-03 20:05:00,
2013-02-03 12:10:00,58.6,44.3,30.08,WNW,295,2.0,0.0,59,0.00,,---,0.00,VWS V14.01,2013-02-03 20:10:00,
2013-02-03 12:15:00,58.7,42.1,30.08,NE,50,0.0,0.0,54,0.00,,---,0.00,VWS V14.01,2013-02-03 20:15:00,
2013-02-03 12:20:00,59.1,42.5,30.08,NE,34,0.0,0.0,54,0.00,,---,0.00,VWS V14.01,2013-02-03 20:20:00,
2013-02-03 12:25:00,59.8,43.1,30.08,NNW,329,2.0,0.0,54,0.00,,---,0.00,VWS V14.01,2013-02-03 20:25:00,
2013-02-03 12:30:00,60.3,42.6,30.07,NNW,346,1.0,0.0,52,0.00,,---,0.00,VWS V14.01,2013-02-03 20:30:00,
2013-02-03 12:35:00,60.8,44.1,30.07,WNW,296,0.0,0.0,54,0.00,,---,0.00,VWS V14.01,2013-02-03 20:35:00,
2013-02-03 12:40:00,60.8,43.6,30.06,WNW,300,0.0,0.0,53,0.00,,---,0.00,VWS V14.01,2013-02-03 20:40:00,
2013-02-03 12:45:00,61.1,42.3,30.06,ENE,57,0.0,0.0,50,0.00,,---,0.00,VWS V14.01,2013-02-03 20:45:00,
2013-02-03 12:51:00,61.5,44.7,30.06,NE,46,2.0,0.0,54,0.00,,---,0.00,VWS V14.01,2013-02-03 20:51:00,
2013-02-03 12:56:00,61.8,44.5,30.06,East,97,0.0,0.0,53,0.00,,---,0.00,VWS V14.01,2013-02-03 20:56:00,
2013-02-03 13:01:00,62.2,43.9,30.06,North,5,0.0,0.0,51,0.00,,---,0.00,VWS V14.01,2013-02-03 21:01:00,
2013-02-03 13:06:00,63.1,44.7,30.06,NNE,32,0.0,0.0,51,0.00,,---,0.00,VWS V14.01,2013-02-03 21:06:00,
2013-02-03 13:11:00,63.9,44.4,30.05,NNW,333,1.0,0.0,49,0.00,,---,0.00,VWS V14.01,2013-02-03 21:11:00,
2013-02-03 13:16:00,64.6,45.6,30.05,NE,50,0.0,0.0,50,0.00,,---,0.00,VWS V14.01,2013-02-03 21:16:00,
2013-02-03 13:21:00,65.1,44.9,30.05,NNW,344,0.0,0.0,48,0.00,,---,0.00,VWS V14.01,2013-02-03 21:21:00,
2013-02-03 13:26:00,65.8,45.6,30.05,NNW,331,0.0,0.0,48,0.00,,---,0.00,VWS V14.01,2013-02-03 21:26:00,
2013-02-03 13:31:00,65.6,44.8,30.05,NNW,335,3.0,0.0,47,0.00,,---,0.00,VWS V14.01,2013-02-03 21:31:00,
2013-02-03 13:36:00,65.3,45.1,30.05,NE,51,3.0,0.0,48,0.00,,---,0.00,VWS V14.01,2013-02-03 21:36:00,
2013-02-03 13:41:00,65.4,45.2,30.04,NNE,28,1.0,0.0,48,0.00,,---,0.00,VWS V14.01,2013-02-03 21:41:00,
2013-02-03 13:47:00,65.8,45.6,30.04,North,350,2.0,0.0,48,0.00,,---,0.00,VWS V14.01,2013-02-03 21:47:00,
2013-02-03 13:52:00,66.2,46.5,30.05,NE,38,2.0,0.0,49,0.00,,---,0.00,VWS V14.01,2013-02-03 21:52:00,
2013-02-03 13:57:00,66.6,46.3,30.05,NNW,329,2.0,0.0,48,0.00,,---,0.00,VWS V14.01,2013-02-03 21:57:00,
2013-02-03 14:02:00,66.3,46.6,30.05,NNW,329,1.0,0.0,49,0.00,,---,0.00,VWS V14.01,2013-02-03 22:02:00,
2013-02-03 14:07:00,66.6,46.3,30.05,NNE,22,2.0,0.0,48,0.00,,---,0.00,VWS V14.01,2013-02-03 22:07:00,
2013-02-03 14:12:00,66.8,46.5,30.04,West,272,1.0,0.0,48,0.00,,---,0.00,VWS V14.01,2013-02-03 22:12:00,
2013-02-03 14:17:00,66.2,46.5,30.05,NE,36,3.0,0.0,49,0.00,,---,0.00,VWS V14.01,2013-02-03 22:17:00,
2013-02-03 14:22:00,65.8,45.6,30.03,West,281,1.0,0.0,48,0.00,,---,0.00,VWS V14.01,2013-02-03 22:22:00,
2013-02-03 14:27:00,64.5,44.9,30.03,North,355,0.0,0.0,49,0.00,,---,0.00,VWS V14.01,2013-02-03 22:27:00,
2013-02-03 14:32:00,64.7,45.7,30.04,NNE,18,1.0,0.0,50,0.00,,---,0.00,VWS V14.01,2013-02-03 22:32:00,
2013-02-03 14:37:00,64.8,45.7,30.04,NNE,16,1.0,0.0,50,0.00,,---,0.00,VWS V14.01,2013-02-03 22:37:00,
2013-02-03 14:42:00,64.6,46.1,30.04,NW,315,0.0,0.0,51,0.00,,---,0.00,VWS V14.01,2013-02-03 22:42:00,
2013-02-03 14:47:00,64.5,46.0,30.04,NNE,25,0.0,0.0,51,0.00,,---,0.00,VWS V14.01,2013-02-03 22:47:00,
2013-02-03 14:52:00,64.3,45.3,30.04,NE,42,4.0,0.0,50,0.00,,---,0.00,VWS V14.01,2013-02-03 22:52:00,
2013-02-03 14:57:00,64.3,46.3,30.04,ENE,64,4.0,0.0,52,0.00,,---,0.00,VWS V14.01,2013-02-03 22:57:00,
2013-02-03 15:02:00,63.8,46.4,30.04,NE,42,5.0,0.0,53,0.00,,---,0.00,VWS V14.01,2013-02-03 23:02:00,
2013-02-03 15:07:00,63.4,46.0,30.04,NNW,342,0.0,0.0,53,0.00,,---,0.00,VWS V14.01,2013-02-03 23:07:00,
2013-02-03 15:13:00,63.5,46.1,30.04,ESE,109,6.0,0.0,53,0.00,,---,0.00,VWS V14.01,2013-02-03 23:13:00,
2013-02-03 15:18:00,63.0,46.6,30.04,North,360,0.0,0.0,55,0.00,,---,0.00,VWS V14.01,2013-02-03 23:18:00,
2013-02-03 15:23:00,63.1,46.7,30.04,North,5,0.0,0.0,55,0.00,,---,0.00,VWS V14.01,2013-02-03 23:23:00,
2013-02-03 15:28:00,63.0,46.1,30.04,NNE,26,2.0,0.0,54,0.00,,---,0.00,VWS V14.01,2013-02-03 23:28:00,
2013-02-03 15:33:00,62.6,46.7,30.04,North,360,2.0,0.0,56,0.00,,---,0.00,VWS V14.01,2013-02-03 23:33:00,
2013-02-03 15:38:00,62.1,46.2,30.04,NE,49,1.0,0.0,56,0.00,,---,0.00,VWS V14.01,2013-02-03 23:38:00,
2013-02-03 15:43:00,61.7,45.9,30.03,NE,43,1.0,0.0,56,0.00,,---,0.00,VWS V14.01,2013-02-03 23:43:00,
2013-02-03 15:48:00,61.2,45.4,30.03,ENE,70,0.0,0.0,56,0.00,,---,0.00,VWS V14.01,2013-02-03 23:48:00,
2013-02-03 15:54:00,60.7,45.8,30.04,East,92,1.0,0.0,58,0.00,,---,0.00,VWS V14.01,2013-02-03 23:54:00,
2013-02-03 15:59:00,60.1,45.3,30.03,ESE,104,0.0,0.0,58,0.00,,---,0.00,VWS V14.01,2013-02-03 23:59:00,
2013-02-03 16:04:00,59.8,45.5,30.03,NNE,30,0.0,0.0,59,0.00,,---,0.00,VWS V14.01,2013-02-04 00:04:00,
2013-02-03 16:09:00,59.5,44.7,30.03,North,355,1.0,0.0,58,0.00,,---,0.00,VWS V14.01,2013-02-04 00:09:00,
2013-02-03 16:14:00,59.4,44.2,30.03,NNE,13,0.0,0.0,57,0.00,,---,0.00,VWS V14.01,2013-02-04 00:14:00,
2013-02-03 16:19:00,59.3,44.5,30.03,NNE,24,1.0,0.0,58,0.00,,---,0.00,VWS V14.01,2013-02-04 00:19:00,
2013-02-03 16:24:00,59.1,44.3,30.02,NNE,19,0.0,0.0,58,0.00,,---,0.00,VWS V14.01,2013-02-04 00:24:00,
2013-02-03 16:29:00,59.0,44.3,30.02,NNW,342,0.0,0.0,58,0.00,,---,0.00,VWS V14.01,2013-02-04 00:29:00,
2013-02-03 16:34:00,58.9,44.2,30.02,North,350,0.0,0.0,58,0.00,,---,0.00,VWS V14.01,2013-02-04 00:34:00,
2013-02-03 16:39:00,58.7,44.4,30.02,North,5,0.0,0.0,59,0.00,,---,0.00,VWS V14.01,2013-02-04 00:39:00,
2013-02-03 16:44:00,58.6,44.8,30.02,North,9,0.0,0.0,60,0.00,,---,0.00,VWS V14.01,2013-02-04 00:44:00,
2013-02-03 16:49:00,58.4,44.1,30.02,North,5,0.0,0.0,59,0.00,,---,0.00,VWS V14.01,2013-02-04 00:49:00,
2013-02-03 16:54:00,58.1,44.3,30.02,North,5,0.0,0.0,60,0.00,,---,0.00,VWS V14.01,2013-02-04 00:54:00,
2013-02-03 16:59:00,57.8,44.5,30.02,North,5,0.0,0.0,61,0.00,,---,0.00,VWS V14.01,2013-02-04 00:59:00,
2013-02-03 17:04:00,57.3,44.8,30.02,North,5,0.0,0.0,63,0.00,,---,0.00,VWS V14.01,2013-02-04 01:04:00,
2013-02-03 17:09:00,56.9,44.9,30.02,North,5,0.0,0.0,64,0.00,,---,0.00,VWS V14.01,2013-02-04 01:09:00,
2013-02-03 17:15:00,56.4,44.8,30.02,North,5,0.0,0.0,65,0.00,,---,0.00,VWS V14.01,2013-02-04 01:15:00,
2013-02-03 17:20:00,55.9,44.3,30.02,North,5,0.0,0.0,65,0.00,,---,0.00,VWS V14.01,2013-02-04 01:20:00,
2013-02-03 17:25:00,55.3,44.5,30.02,North,5,0.0,0.0,67,0.00,,---,0.00,VWS V14.01,2013-02-04 01:25:00,
2013-02-03 17:30:00,54.9,44.5,30.02,North,5,0.0,0.0,68,0.00,,---,0.00,VWS V14.01,2013-02-04 01:30:00,
2013-02-03 17:35:00,54.4,44.5,30.02,North,5,0.0,0.0,69,0.00,,---,0.00,VWS V14.01,2013-02-04 01:35:00,
2013-02-03 17:40:00,53.9,44.3,30.02,North,5,0.0,0.0,70,0.00,,---,0.00,VWS V14.01,2013-02-04 01:40:00,
2013-02-03 17:45:00,53.5,44.3,30.02,North,5,0.0,0.0,71,0.00,,---,0.00,VWS V14.01,2013-02-04 01:45:00,
2013-02-03 17:50:00,53.0,43.9,30.02,North,5,0.0,0.0,71,0.00,,---,0.00,VWS V14.01,2013-02-04 01:50:00,
2013-02-03 17:55:00,52.6,43.8,30.02,North,5,0.0,0.0,72,0.00,,---,0.00,VWS V14.01,2013-02-04 01:55:00,
2013-02-03 18:00:00,52.4,44.0,30.02,North,5,0.0,0.0,73,0.00,,---,0.00,VWS V14.01,2013-02-04 02:00:00,
2013-02-03 18:05:00,52.1,43.7,30.02,North,5,0.0,0.0,73,0.00,,---,0.00,VWS V14.01,2013-02-04 02:05:00,
2013-02-03 18:10:00,52.1,44.1,30.03,North,5,0.0,0.0,74,0.00,,---,0.00,VWS V14.01,2013-02-04 02:10:00,
2013-02-03 18:15:00,51.8,44.1,30.03,North,5,0.0,0.0,75,0.00,,---,0.00,VWS V14.01,2013-02-04 02:15:00,
2013-02-03 18:20:00,51.6,44.0,30.03,North,5,0.0,0.0,75,0.00,,---,0.00,VWS V14.01,2013-02-04 02:20:00,
2013-02-03 18:26:00,51.4,44.1,30.03,North,5,0.0,0.0,76,0.00,,---,0.00,VWS V14.01,2013-02-04 02:26:00,
2013-02-03 18:31:00,51.2,44.2,30.03,North,5,0.0,0.0,77,0.00,,---,0.00,VWS V14.01,2013-02-04 02:31:00,
2013-02-03 18:36:00,51.0,44.4,30.03,North,5,0.0,0.0,78,0.00,,---,0.00,VWS V14.01,2013-02-04 02:36:00,
2013-02-03 18:41:00,50.8,44.2,30.03,North,5,0.0,0.0,78,0.00,,---,0.00,VWS V14.01,2013-02-04 02:41:00,
2013-02-03 18:46:00,50.8,44.2,30.03,North,5,0.0,0.0,78,0.00,,---,0.00,VWS V14.01,2013-02-04 02:46:00,
2013-02-03 18:51:00,50.7,43.8,30.03,North,5,0.0,0.0,77,0.00,,---,0.00,VWS V14.01,2013-02-04 02:51:00,
2013-02-03 18:56:00,50.6,43.7,30.03,North,5,0.0,0.0,77,0.00,,---,0.00,VWS V14.01,2013-02-04 02:56:00,
2013-02-03 19:01:00,50.4,43.8,30.03,North,5,0.0,0.0,78,0.00,,---,0.00,VWS V14.01,2013-02-04 03:01:00,
2013-02-03 19:06:00,50.1,43.5,30.04,North,5,0.0,0.0,78,0.00,,---,0.00,VWS V14.01,2013-02-04 03:06:00,
2013-02-03 19:11:00,49.7,43.5,30.04,North,5,0.0,0.0,79,0.00,,---,0.00,VWS V14.01,2013-02-04 03:11:00,
2013-02-03 19:16:00,49.5,43.3,30.04,North,5,0.0,0.0,79,0.00,,---,0.00,VWS V14.01,2013-02-04 03:16:00,
2013-02-03 19:21:00,49.4,43.2,30.04,North,5,0.0,0.0,79,0.00,,---,0.00,VWS V14.01,2013-02-04 03:21:00,
2013-02-03 19:26:00,49.2,43.3,30.04,North,5,0.0,0.0,80,0.00,,---,0.00,VWS V14.01,2013-02-04 03:26:00,
2013-02-03 19:31:00,49.0,43.1,30.04,North,5,0.0,0.0,80,0.00,,---,0.00,VWS V14.01,2013-02-04 03:31:00,
2013-02-03 19:37:00,48.8,42.9,30.04,North,5,0.0,0.0,80,0.00,,---,0.00,VWS V14.01,2013-02-04 03:37:00,
2013-02-03 19:42:00,48.6,42.7,30.04,North,5,0.0,0.0,80,0.00,,---,0.00,VWS V14.01,2013-02-04 03:42:00,
2013-02-03 19:47:00,48.4,42.8,30.03,North,5,0.0,0.0,81,0.00,,---,0.00,VWS V14.01,2013-02-04 03:47:00,
2013-02-03 19:52:00,48.3,42.8,30.03,North,5,0.0,0.0,81,0.00,,---,0.00,VWS V14.01,2013-02-04 03:52:00,
2013-02-03 19:57:00,48.1,42.5,30.03,North,5,0.0,0.0,81,0.00,,---,0.00,VWS V14.01,2013-02-04 03:57:00,
2013-02-03 20:02:00,47.9,42.7,30.03,North,5,0.0,0.0,82,0.00,,---,0.00,VWS V14.01,2013-02-04 04:02:00,
2013-02-03 20:07:00,47.8,42.6,30.03,North,5,0.0,0.0,82,0.00,,---,0.00,VWS V14.01,2013-02-04 04:07:00,
2013-02-03 20:12:00,47.7,42.5,30.04,North,9,0.0,0.0,82,0.00,,---,0.00,VWS V14.01,2013-02-04 04:12:00,
2013-02-03 20:17:00,47.5,42.6,30.04,North,5,0.0,0.0,83,0.00,,---,0.00,VWS V14.01,2013-02-04 04:17:00,
2013-02-03 20:22:00,47.3,42.4,30.04,North,5,0.0,0.0,83,0.00,,---,0.00,VWS V14.01,2013-02-04 04:22:00,
2013-02-03 20:27:00,47.0,42.1,30.03,North,5,0.0,0.0,83,0.00,,---,0.00,VWS V14.01,2013-02-04 04:27:00,
2013-02-03 20:32:00,46.9,42.0,30.03,North,5,0.0,0.0,83,0.00,,---,0.00,VWS V14.01,2013-02-04 04:32:00,
2013-02-03 20:37:00,46.7,42.1,30.03,North,5,0.0,0.0,84,0.00,,---,0.00,VWS V14.01,2013-02-04 04:37:00,
2013-02-03 20:42:00,46.6,42.0,30.03,North,5,0.0,0.0,84,0.00,,---,0.00,VWS V14.01,2013-02-04 04:42:00,
2013-02-03 20:47:00,46.5,41.9,30.03,North,5,0.0,0.0,84,0.00,,---,0.00,VWS V14.01,2013-02-04 04:47:00,
2013-02-03 20:52:00,46.3,42.0,30.03,North,5,0.0,0.0,85,0.00,,---,0.00,VWS V14.01,2013-02-04 04:52:00,
2013-02-03 20:58:00,46.2,42.0,30.04,North,5,0.0,0.0,85,0.00,,---,0.00,VWS V14.01,2013-02-04 04:58:00,
2013-02-03 21:00:00,46.1,41.8,30.04,North,5,0.0,0.0,85,0.00,,---,0.00,VWS V14.01,2013-02-04 05:00:00,
2013-02-03 21:01:00,46.1,41.8,30.04,North,5,0.0,0.0,85,0.00,,---,0.00,VWS V14.01,2013-02-04 05:01:00,
2013-02-03 21:03:00,46.0,41.8,30.04,North,5,0.0,0.0,85,0.00,,---,0.00,VWS V14.01,2013-02-04 05:03:00,
2013-02-03 21:04:00,46.1,41.8,30.04,North,5,0.0,0.0,85,0.00,,---,0.00,VWS V14.01,2013-02-04 05:04:00,
2013-02-03 21:09:00,46.0,42.0,30.04,North,5,0.0,0.0,86,0.00,,---,0.00,VWS V14.01,2013-02-04 05:09:00,
2013-02-03 21:14:00,46.0,42.0,30.04,North,5,0.0,0.0,86,0.00,,---,0.00,VWS V14.01,2013-02-04 05:14:00,
2013-02-03 21:19:00,46.0,42.0,30.04,North,5,0.0,0.0,86,0.00,,---,0.00,VWS V14.01,2013-02-04 05:19:00,
2013-02-03 21:24:00,45.9,42.0,30.04,North,5,0.0,0.0,86,0.00,,---,0.00,VWS V14.01,2013-02-04 05:24:00,
2013-02-03 21:29:00,45.8,41.9,30.04,North,5,0.0,0.0,86,0.00,,---,0.00,VWS V14.01,2013-02-04 05:29:00,
2013-02-03 21:34:00,45.7,41.8,30.04,North,5,0.0,0.0,86,0.00,,---,0.00,VWS V14.01,2013-02-04 05:34:00,
2013-02-03 21:39:00,45.6,41.7,30.04,North,5,0.0,0.0,86,0.00,,---,0.00,VWS V14.01,2013-02-04 05:39:00,
2013-02-03 21:44:00,45.5,41.6,30.04,North,5,0.0,0.0,86,0.00,,---,0.00,VWS V14.01,2013-02-04 05:44:00,
2013-02-03 21:49:00,45.4,41.8,30.04,North,5,0.0,0.0,87,0.00,,---,0.00,VWS V14.01,2013-02-04 05:49:00,
2013-02-03 21:54:00,45.3,41.4,30.04,North,5,0.0,0.0,86,0.00,,---,0.00,VWS V14.01,2013-02-04 05:54:00,
2013-02-03 21:59:00,45.1,41.5,30.04,North,5,0.0,0.0,87,0.00,,---,0.00,VWS V14.01,2013-02-04 05:59:00,
2013-02-03 22:04:00,45.1,41.8,30.04,North,5,0.0,0.0,88,0.00,,---,0.00,VWS V14.01,2013-02-04 06:04:00,
2013-02-03 22:10:00,45.2,41.9,30.04,North,5,0.0,0.0,88,0.00,,---,0.00,VWS V14.01,2013-02-04 06:10:00,
2013-02-03 22:15:00,45.2,41.6,30.04,North,9,0.0,0.0,87,0.00,,---,0.00,VWS V14.01,2013-02-04 06:15:00,
2013-02-03 22:20:00,45.2,41.6,30.04,North,9,0.0,0.0,87,0.00,,---,0.00,VWS V14.01,2013-02-04 06:20:00,
2013-02-03 22:25:00,45.1,41.5,30.04,East,95,0.0,0.0,87,0.00,,---,0.00,VWS V14.01,2013-02-04 06:25:00,
2013-02-03 22:30:00,45.1,41.5,30.04,East,95,0.0,0.0,87,0.00,,---,0.00,VWS V14.01,2013-02-04 06:30:00,
2013-02-03 22:35:00,45.0,41.7,30.04,East,95,0.0,0.0,88,0.00,,---,0.00,VWS V14.01,2013-02-04 06:35:00,
2013-02-03 22:40:00,45.0,41.7,30.04,East,95,0.0,0.0,88,0.00,,---,0.00,VWS V14.01,2013-02-04 06:40:00,
2013-02-03 22:45:00,45.0,41.7,30.04,East,95,0.0,0.0,88,0.00,,---,0.00,VWS V14.01,2013-02-04 06:45:00,
2013-02-03 22:50:00,45.0,41.7,30.04,East,95,0.0,0.0,88,0.00,,---,0.00,VWS V14.01,2013-02-04 06:50:00,
2013-02-03 22:55:00,45.0,42.0,30.05,East,95,0.0,0.0,89,0.00,,---,0.00,VWS V14.01,2013-02-04 06:55:00,
2013-02-03 23:00:00,45.2,42.2,30.05,East,96,0.0,0.0,89,0.00,,---,0.00,VWS V14.01,2013-02-04 07:00:00,
2013-02-03 23:05:00,45.4,42.1,30.05,East,95,0.0,0.0,88,0.00,,---,0.00,VWS V14.01,2013-02-04 07:05:00,
2013-02-03 23:10:00,45.5,42.2,30.05,East,95,0.0,0.0,88,0.00,,---,0.00,VWS V14.01,2013-02-04 07:10:00,
2013-02-03 23:15:00,45.5,42.2,30.05,ENE,78,0.0,0.0,88,0.00,,---,0.00,VWS V14.01,2013-02-04 07:15:00,
2013-02-03 23:20:00,45.5,42.2,30.05,East,90,0.0,0.0,88,0.00,,---,0.00,VWS V14.01,2013-02-04 07:20:00,
2013-02-03 23:25:00,45.6,42.0,30.04,East,89,0.0,0.0,87,0.00,,---,0.00,VWS V14.01,2013-02-04 07:25:00,
2013-02-03 23:31:00,45.6,42.0,30.04,East,89,0.0,0.0,87,0.00,,---,0.00,VWS V14.01,2013-02-04 07:31:00,
2013-02-03 23:36:00,45.5,41.9,30.04,East,89,0.0,0.0,87,0.00,,---,0.00,VWS V14.01,2013-02-04 07:36:00,
2013-02-03 23:41:00,45.3,41.7,30.04,East,89,0.0,0.0,87,0.00,,---,0.00,VWS V14.01,2013-02-04 07:41:00,
2013-02-03 23:46:00,45.3,42.0,30.04,East,89,0.0,0.0,88,0.00,,---,0.00,VWS V14.01,2013-02-04 07:46:00,
2013-02-03 23:51:00,45.2,41.9,30.04,East,89,0.0,0.0,88,0.00,,---,0.00,VWS V14.01,2013-02-04 07:51:00,
2013-02-03 23:56:00,45.2,41.6,30.04,East,89,0.0,0.0,87,0.00,,---,0.00,VWS V14.01,2013-02-04 07:56:00,